sensor_id;sensor_type;location;lat;lon;timestamp;pressure;altitude;pressure_sealevel;temperature;humidity
29815;BME280;16708;50.426;7.664;2023-08-06T00:04:15;977.29;;;14.52;100.00
29815;BME280;16708;50.426;7.664;2023-08-06T00:09:10;977.40;;;14.39;100.00
29815;BME280;16708;50.426;7.664;2023-08-06T00:14:03;977.27;;;14.39;100.00
29815;BME280;16708;50.426;7.664;2023-08-06T00:18:57;977.32;;;14.44;100.00
29815;BME280;16708;50.426;7.664;2023-08-06T00:23:52;977.24;;;14.44;100.00
29815;BME280;16708;50.426;7.664;2023-08-06T00:28:46;977.11;;;14.39;100.00
29815;BME280;16708;50.426;7.664;2023-08-06T00:33:40;977.14;;;14.38;100.00
29815;BME280;16708;50.426;7.664;2023-08-06T00:38:34;977.10;;;14.40;100.00
29815;BME280;16708;50.426;7.664;2023-08-06T00:43:29;977.04;;;14.46;100.00
29815;BME280;16708;50.426;7.664;2023-08-06T00:48:23;976.94;;;14.48;100.00
29815;BME280;16708;50.426;7.664;2023-08-06T00:53:15;976.87;;;14.48;100.00
29815;BME280;16708;50.426;7.664;2023-08-06T00:58:10;976.96;;;14.49;100.00
29815;BME280;16708;50.426;7.664;2023-08-06T01:03:04;976.86;;;14.49;100.00
29815;BME280;16708;50.426;7.664;2023-08-06T01:12:54;976.79;;;14.48;100.00
29815;BME280;16708;50.426;7.664;2023-08-06T01:17:47;976.71;;;14.65;100.00
29815;BME280;16708;50.426;7.664;2023-08-06T01:22:42;976.68;;;14.63;100.00
29815;BME280;16708;50.426;7.664;2023-08-06T01:27:36;976.89;;;14.59;100.00
29815;BME280;16708;50.426;7.664;2023-08-06T01:32:28;976.69;;;14.57;100.00
29815;BME280;16708;50.426;7.664;2023-08-06T01:37:23;976.69;;;14.58;100.00
29815;BME280;16708;50.426;7.664;2023-08-06T01:42:17;976.74;;;14.58;100.00
29815;BME280;16708;50.426;7.664;2023-08-06T01:47:12;976.67;;;14.57;100.00
29815;BME280;16708;50.426;7.664;2023-08-06T01:52:06;976.58;;;14.56;100.00
29815;BME280;16708;50.426;7.664;2023-08-06T01:57:01;976.58;;;14.47;100.00
29815;BME280;16708;50.426;7.664;2023-08-06T02:01:55;976.58;;;14.39;100.00
29815;BME280;16708;50.426;7.664;2023-08-06T02:06:50;976.57;;;14.32;100.00
29815;BME280;16708;50.426;7.664;2023-08-06T02:11:44;976.52;;;14.29;100.00
29815;BME280;16708;50.426;7.664;2023-08-06T02:16:39;976.43;;;14.23;100.00
29815;BME280;16708;50.426;7.664;2023-08-06T02:21:33;976.40;;;14.10;100.00
29815;BME280;16708;50.426;7.664;2023-08-06T02:26:26;976.26;;;13.95;100.00
29815;BME280;16708;50.426;7.664;2023-08-06T02:31:18;976.35;;;13.97;100.00
29815;BME280;16708;50.426;7.664;2023-08-06T02:36:13;976.19;;;13.99;100.00
29815;BME280;16708;50.426;7.664;2023-08-06T02:41:08;976.19;;;14.03;100.00
29815;BME280;16708;50.426;7.664;2023-08-06T02:46:01;976.16;;;13.92;100.00
29815;BME280;16708;50.426;7.664;2023-08-06T02:50:56;976.06;;;13.81;100.00
29815;BME280;16708;50.426;7.664;2023-08-06T02:55:50;976.04;;;13.70;100.00
29815;BME280;16708;50.426;7.664;2023-08-06T03:00:44;975.99;;;13.64;100.00
29815;BME280;16708;50.426;7.664;2023-08-06T03:05:38;975.94;;;13.69;100.00
29815;BME280;16708;50.426;7.664;2023-08-06T03:10:32;975.88;;;13.73;100.00
29815;BME280;16708;50.426;7.664;2023-08-06T03:15:27;975.76;;;13.72;100.00
29815;BME280;16708;50.426;7.664;2023-08-06T03:20:20;975.77;;;13.76;100.00
29815;BME280;16708;50.426;7.664;2023-08-06T03:25:15;975.70;;;13.86;100.00
29815;BME280;16708;50.426;7.664;2023-08-06T03:30:09;975.70;;;13.88;100.00
29815;BME280;16708;50.426;7.664;2023-08-06T03:35:03;975.75;;;13.86;100.00
29815;BME280;16708;50.426;7.664;2023-08-06T03:39:59;975.64;;;13.81;100.00
29815;BME280;16708;50.426;7.664;2023-08-06T03:44:51;975.66;;;13.76;100.00
29815;BME280;16708;50.426;7.664;2023-08-06T03:49:46;975.62;;;13.75;100.00
29815;BME280;16708;50.426;7.664;2023-08-06T03:54:40;975.62;;;13.72;100.00
29815;BME280;16708;50.426;7.664;2023-08-06T03:59:33;975.60;;;13.77;100.00
29815;BME280;16708;50.426;7.664;2023-08-06T04:04:28;975.57;;;13.81;100.00
29815;BME280;16708;50.426;7.664;2023-08-06T04:09:22;975.45;;;13.85;100.00
29815;BME280;16708;50.426;7.664;2023-08-06T04:14:15;975.48;;;13.81;100.00
29815;BME280;16708;50.426;7.664;2023-08-06T04:19:09;975.47;;;13.83;100.00
29815;BME280;16708;50.426;7.664;2023-08-06T04:24:03;975.51;;;13.84;100.00
29815;BME280;16708;50.426;7.664;2023-08-06T04:28:58;975.44;;;13.86;100.00
29815;BME280;16708;50.426;7.664;2023-08-06T04:33:52;975.47;;;13.88;100.00
29815;BME280;16708;50.426;7.664;2023-08-06T04:38:46;975.49;;;13.86;100.00
29815;BME280;16708;50.426;7.664;2023-08-06T04:43:41;975.50;;;13.82;100.00
29815;BME280;16708;50.426;7.664;2023-08-06T04:48:35;975.55;;;13.82;100.00
29815;BME280;16708;50.426;7.664;2023-08-06T04:53:28;975.43;;;13.83;100.00
29815;BME280;16708;50.426;7.664;2023-08-06T04:58:22;975.45;;;13.85;100.00
29815;BME280;16708;50.426;7.664;2023-08-06T05:03:16;975.47;;;13.93;100.00
29815;BME280;16708;50.426;7.664;2023-08-06T05:08:10;975.51;;;13.93;100.00
29815;BME280;16708;50.426;7.664;2023-08-06T05:13:05;975.46;;;13.96;100.00
29815;BME280;16708;50.426;7.664;2023-08-06T05:17:59;975.47;;;14.06;100.00
29815;BME280;16708;50.426;7.664;2023-08-06T05:22:53;975.45;;;14.08;100.00
29815;BME280;16708;50.426;7.664;2023-08-06T05:27:46;975.48;;;13.99;100.00
29815;BME280;16708;50.426;7.664;2023-08-06T05:32:40;975.52;;;13.86;100.00
29815;BME280;16708;50.426;7.664;2023-08-06T05:37:33;975.57;;;13.80;100.00
29815;BME280;16708;50.426;7.664;2023-08-06T05:42:26;975.54;;;14.07;100.00
29815;BME280;16708;50.426;7.664;2023-08-06T05:47:19;975.51;;;14.15;100.00
29815;BME280;16708;50.426;7.664;2023-08-06T05:52:14;975.61;;;13.98;100.00
29815;BME280;16708;50.426;7.664;2023-08-06T05:57:07;975.56;;;14.07;100.00
29815;BME280;16708;50.426;7.664;2023-08-06T06:02:01;975.67;;;14.18;100.00
29815;BME280;16708;50.426;7.664;2023-08-06T06:06:56;975.77;;;14.36;100.00
29815;BME280;16708;50.426;7.664;2023-08-06T06:11:50;975.64;;;14.28;100.00
29815;BME280;16708;50.426;7.664;2023-08-06T06:16:42;975.67;;;14.38;100.00
29815;BME280;16708;50.426;7.664;2023-08-06T06:21:36;975.79;;;14.47;100.00
29815;BME280;16708;50.426;7.664;2023-08-06T06:26:30;975.80;;;14.55;100.00
29815;BME280;16708;50.426;7.664;2023-08-06T06:31:24;975.76;;;14.67;100.00
29815;BME280;16708;50.426;7.664;2023-08-06T06:36:18;975.86;;;14.46;100.00
29815;BME280;16708;50.426;7.664;2023-08-06T06:41:12;975.87;;;14.35;100.00
29815;BME280;16708;50.426;7.664;2023-08-06T06:46:07;975.90;;;14.39;100.00
29815;BME280;16708;50.426;7.664;2023-08-06T06:51:01;975.88;;;14.36;100.00
29815;BME280;16708;50.426;7.664;2023-08-06T06:55:55;975.84;;;14.59;100.00
29815;BME280;16708;50.426;7.664;2023-08-06T07:00:49;975.85;;;14.74;100.00
29815;BME280;16708;50.426;7.664;2023-08-06T07:05:43;975.80;;;14.96;100.00
29815;BME280;16708;50.426;7.664;2023-08-06T07:10:37;975.83;;;14.86;100.00
29815;BME280;16708;50.426;7.664;2023-08-06T07:15:31;975.86;;;15.22;100.00
29815;BME280;16708;50.426;7.664;2023-08-06T07:20:25;975.86;;;15.07;100.00
29815;BME280;16708;50.426;7.664;2023-08-06T07:25:19;975.95;;;15.47;100.00
29815;BME280;16708;50.426;7.664;2023-08-06T07:30:14;975.90;;;15.60;100.00
29815;BME280;16708;50.426;7.664;2023-08-06T07:35:08;975.98;;;15.48;100.00
29815;BME280;16708;50.426;7.664;2023-08-06T07:40:03;975.96;;;16.00;100.00
29815;BME280;16708;50.426;7.664;2023-08-06T07:44:57;975.96;;;15.97;100.00
29815;BME280;16708;50.426;7.664;2023-08-06T07:49:51;975.99;;;15.98;100.00
29815;BME280;16708;50.426;7.664;2023-08-06T07:54:45;975.97;;;15.82;100.00
29815;BME280;16708;50.426;7.664;2023-08-06T07:59:39;975.99;;;16.14;100.00
29815;BME280;16708;50.426;7.664;2023-08-06T08:04:33;975.94;;;16.81;100.00
29815;BME280;16708;50.426;7.664;2023-08-06T08:09:28;975.77;;;17.30;100.00
29815;BME280;16708;50.426;7.664;2023-08-06T08:14:22;975.90;;;17.16;100.00
29815;BME280;16708;50.426;7.664;2023-08-06T08:19:16;975.88;;;17.36;100.00
29815;BME280;16708;50.426;7.664;2023-08-06T08:24:11;975.79;;;18.69;100.00
29815;BME280;16708;50.426;7.664;2023-08-06T08:29:05;975.86;;;17.74;100.00
29815;BME280;16708;50.426;7.664;2023-08-06T08:33:59;975.86;;;16.91;100.00
29815;BME280;16708;50.426;7.664;2023-08-06T08:38:53;975.82;;;17.34;100.00
29815;BME280;16708;50.426;7.664;2023-08-06T08:43:48;975.80;;;17.84;100.00
29815;BME280;16708;50.426;7.664;2023-08-06T08:48:41;975.79;;;17.74;100.00
29815;BME280;16708;50.426;7.664;2023-08-06T08:53:35;975.91;;;16.92;100.00
29815;BME280;16708;50.426;7.664;2023-08-06T08:58:28;976.02;;;16.44;100.00
29815;BME280;16708;50.426;7.664;2023-08-06T09:03:22;975.99;;;16.39;100.00
29815;BME280;16708;50.426;7.664;2023-08-06T09:08:16;975.93;;;16.45;100.00
29815;BME280;16708;50.426;7.664;2023-08-06T09:13:08;975.99;;;16.94;100.00
29815;BME280;16708;50.426;7.664;2023-08-06T09:22:57;975.99;;;18.14;100.00
29815;BME280;16708;50.426;7.664;2023-08-06T09:27:51;976.01;;;18.56;100.00
29815;BME280;16708;50.426;7.664;2023-08-06T09:32:45;976.01;;;18.76;100.00
29815;BME280;16708;50.426;7.664;2023-08-06T09:37:40;975.96;;;18.69;100.00
29815;BME280;16708;50.426;7.664;2023-08-06T09:47:29;976.12;;;19.51;100.00
29815;BME280;16708;50.426;7.664;2023-08-06T09:52:22;976.13;;;18.86;100.00
29815;BME280;16708;50.426;7.664;2023-08-06T09:57:16;976.17;;;17.90;100.00
29815;BME280;16708;50.426;7.664;2023-08-06T10:02:10;976.27;;;18.12;100.00
29815;BME280;16708;50.426;7.664;2023-08-06T10:07:04;976.49;;;16.61;100.00
29815;BME280;16708;50.426;7.664;2023-08-06T10:11:58;976.72;;;15.21;100.00
29815;BME280;16708;50.426;7.664;2023-08-06T10:16:51;976.80;;;15.12;100.00
29815;BME280;16708;50.426;7.664;2023-08-06T10:21:45;976.75;;;14.82;100.00
29815;BME280;16708;50.426;7.664;2023-08-06T10:31:33;976.85;;;14.52;100.00
29815;BME280;16708;50.426;7.664;2023-08-06T10:36:27;976.99;;;14.03;100.00
29815;BME280;16708;50.426;7.664;2023-08-06T10:46:14;977.16;;;13.65;100.00
29815;BME280;16708;50.426;7.664;2023-08-06T10:51:08;977.35;;;13.51;100.00
29815;BME280;16708;50.426;7.664;2023-08-06T10:56:02;977.51;;;13.64;100.00
29815;BME280;16708;50.426;7.664;2023-08-06T11:00:56;977.55;;;13.58;100.00
29815;BME280;16708;50.426;7.664;2023-08-06T11:05:50;977.56;;;13.78;100.00
29815;BME280;16708;50.426;7.664;2023-08-06T11:10:42;977.61;;;13.81;100.00
29815;BME280;16708;50.426;7.664;2023-08-06T11:15:36;977.79;;;13.87;100.00
29815;BME280;16708;50.426;7.664;2023-08-06T11:20:28;977.73;;;13.85;100.00
29815;BME280;16708;50.426;7.664;2023-08-06T11:25:20;977.84;;;13.90;100.00
29815;BME280;16708;50.426;7.664;2023-08-06T11:35:08;978.17;;;13.58;100.00
29815;BME280;16708;50.426;7.664;2023-08-06T11:40:02;978.17;;;13.58;100.00
29815;BME280;16708;50.426;7.664;2023-08-06T11:44:57;978.20;;;13.29;100.00
29815;BME280;16708;50.426;7.664;2023-08-06T11:49:48;978.21;;;13.23;100.00
29815;BME280;16708;50.426;7.664;2023-08-06T11:54:42;978.15;;;13.10;100.00
29815;BME280;16708;50.426;7.664;2023-08-06T11:59:36;978.45;;;13.10;100.00
29815;BME280;16708;50.426;7.664;2023-08-06T12:04:30;978.42;;;13.07;100.00
29815;BME280;16708;50.426;7.664;2023-08-06T12:09:23;978.47;;;13.07;100.00
29815;BME280;16708;50.426;7.664;2023-08-06T12:14:17;978.51;;;13.24;100.00
29815;BME280;16708;50.426;7.664;2023-08-06T12:19:11;978.60;;;13.47;100.00
29815;BME280;16708;50.426;7.664;2023-08-06T12:24:05;978.53;;;13.60;100.00
29815;BME280;16708;50.426;7.664;2023-08-06T12:28:59;978.56;;;13.86;100.00
29815;BME280;16708;50.426;7.664;2023-08-06T12:33:53;978.58;;;13.65;100.00
29815;BME280;16708;50.426;7.664;2023-08-06T12:38:47;978.76;;;13.68;100.00
29815;BME280;16708;50.426;7.664;2023-08-06T12:43:41;978.78;;;13.64;100.00
29815;BME280;16708;50.426;7.664;2023-08-06T12:48:35;978.89;;;13.65;100.00
29815;BME280;16708;50.426;7.664;2023-08-06T12:53:29;979.00;;;13.67;100.00
29815;BME280;16708;50.426;7.664;2023-08-06T12:58:24;979.05;;;13.99;100.00
29815;BME280;16708;50.426;7.664;2023-08-06T13:03:16;979.20;;;13.92;100.00
29815;BME280;16708;50.426;7.664;2023-08-06T13:08:11;979.25;;;13.90;100.00
29815;BME280;16708;50.426;7.664;2023-08-06T13:13:05;979.24;;;13.80;100.00
29815;BME280;16708;50.426;7.664;2023-08-06T13:17:59;979.39;;;14.05;100.00
29815;BME280;16708;50.426;7.664;2023-08-06T13:22:53;979.33;;;13.82;100.00
29815;BME280;16708;50.426;7.664;2023-08-06T13:27:47;979.41;;;14.03;100.00
29815;BME280;16708;50.426;7.664;2023-08-06T13:32:42;979.50;;;14.02;100.00
29815;BME280;16708;50.426;7.664;2023-08-06T13:42:30;979.46;;;14.19;100.00
29815;BME280;16708;50.426;7.664;2023-08-06T13:47:24;979.52;;;14.16;100.00
29815;BME280;16708;50.426;7.664;2023-08-06T13:52:18;979.54;;;14.22;100.00
29815;BME280;16708;50.426;7.664;2023-08-06T13:57:12;979.57;;;14.24;100.00
29815;BME280;16708;50.426;7.664;2023-08-06T14:02:06;979.65;;;14.19;100.00
29815;BME280;16708;50.426;7.664;2023-08-06T14:07:00;979.69;;;13.89;100.00
29815;BME280;16708;50.426;7.664;2023-08-06T14:11:54;979.80;;;13.95;100.00
29815;BME280;16708;50.426;7.664;2023-08-06T14:16:48;979.77;;;13.96;100.00
29815;BME280;16708;50.426;7.664;2023-08-06T14:21:42;979.95;;;14.01;100.00
29815;BME280;16708;50.426;7.664;2023-08-06T14:26:36;979.98;;;13.83;100.00
29815;BME280;16708;50.426;7.664;2023-08-06T14:31:28;980.02;;;13.86;100.00
29815;BME280;16708;50.426;7.664;2023-08-06T14:36:21;980.13;;;13.89;100.00
29815;BME280;16708;50.426;7.664;2023-08-06T14:41:16;980.19;;;13.77;100.00
29815;BME280;16708;50.426;7.664;2023-08-06T14:46:09;980.15;;;13.79;100.00
29815;BME280;16708;50.426;7.664;2023-08-06T14:51:03;980.27;;;14.01;100.00
29815;BME280;16708;50.426;7.664;2023-08-06T14:55:58;980.25;;;13.74;100.00
29815;BME280;16708;50.426;7.664;2023-08-06T15:00:50;980.25;;;13.58;100.00
29815;BME280;16708;50.426;7.664;2023-08-06T15:05:44;980.53;;;13.51;100.00
29815;BME280;16708;50.426;7.664;2023-08-06T15:10:38;980.51;;;13.48;100.00
29815;BME280;16708;50.426;7.664;2023-08-06T15:15:32;980.59;;;13.60;100.00
29815;BME280;16708;50.426;7.664;2023-08-06T15:20:27;980.57;;;13.65;100.00
29815;BME280;16708;50.426;7.664;2023-08-06T15:25:21;980.67;;;13.45;100.00
29815;BME280;16708;50.426;7.664;2023-08-06T15:30:15;980.64;;;13.59;100.00
29815;BME280;16708;50.426;7.664;2023-08-06T15:35:10;980.75;;;13.58;100.00
29815;BME280;16708;50.426;7.664;2023-08-06T15:40:04;980.76;;;13.65;100.00
29815;BME280;16708;50.426;7.664;2023-08-06T15:44:58;980.75;;;13.61;100.00
29815;BME280;16708;50.426;7.664;2023-08-06T15:49:50;980.79;;;13.49;100.00
29815;BME280;16708;50.426;7.664;2023-08-06T15:54:44;980.82;;;13.42;100.00
29815;BME280;16708;50.426;7.664;2023-08-06T15:59:38;980.79;;;13.33;100.00
29815;BME280;16708;50.426;7.664;2023-08-06T16:04:31;980.86;;;13.41;100.00
29815;BME280;16708;50.426;7.664;2023-08-06T16:09:24;980.85;;;13.45;100.00
29815;BME280;16708;50.426;7.664;2023-08-06T16:14:19;980.95;;;13.40;100.00
29815;BME280;16708;50.426;7.664;2023-08-06T16:19:13;980.95;;;13.42;100.00
29815;BME280;16708;50.426;7.664;2023-08-06T16:24:07;980.95;;;13.40;100.00
29815;BME280;16708;50.426;7.664;2023-08-06T16:29:00;980.94;;;13.27;100.00
29815;BME280;16708;50.426;7.664;2023-08-06T16:33:54;981.08;;;13.19;100.00
29815;BME280;16708;50.426;7.664;2023-08-06T16:38:48;981.16;;;13.24;100.00
29815;BME280;16708;50.426;7.664;2023-08-06T16:43:43;981.14;;;13.10;100.00
29815;BME280;16708;50.426;7.664;2023-08-06T16:48:36;981.25;;;13.05;100.00
29815;BME280;16708;50.426;7.664;2023-08-06T16:53:28;981.26;;;13.02;100.00
29815;BME280;16708;50.426;7.664;2023-08-06T16:58:22;981.38;;;12.93;100.00
29815;BME280;16708;50.426;7.664;2023-08-06T17:03:16;981.34;;;12.93;100.00
29815;BME280;16708;50.426;7.664;2023-08-06T17:08:10;981.37;;;12.92;100.00
29815;BME280;16708;50.426;7.664;2023-08-06T17:13:04;981.51;;;12.87;100.00
29815;BME280;16708;50.426;7.664;2023-08-06T17:17:59;981.54;;;12.80;100.00
29815;BME280;16708;50.426;7.664;2023-08-06T17:22:51;981.50;;;12.79;100.00
29815;BME280;16708;50.426;7.664;2023-08-06T17:27:45;981.58;;;12.87;100.00
29815;BME280;16708;50.426;7.664;2023-08-06T17:32:40;981.71;;;12.81;100.00
29815;BME280;16708;50.426;7.664;2023-08-06T17:37:34;981.61;;;12.91;100.00
29815;BME280;16708;50.426;7.664;2023-08-06T17:42:27;981.54;;;12.84;100.00
29815;BME280;16708;50.426;7.664;2023-08-06T17:47:21;981.60;;;12.74;100.00
29815;BME280;16708;50.426;7.664;2023-08-06T17:52:14;981.71;;;12.68;100.00
29815;BME280;16708;50.426;7.664;2023-08-06T17:57:09;981.77;;;12.63;100.00
29815;BME280;16708;50.426;7.664;2023-08-06T18:02:03;981.88;;;12.59;100.00
29815;BME280;16708;50.426;7.664;2023-08-06T18:06:57;981.96;;;12.61;100.00
29815;BME280;16708;50.426;7.664;2023-08-06T18:11:51;981.81;;;12.51;100.00
29815;BME280;16708;50.426;7.664;2023-08-06T18:16:45;981.84;;;12.52;100.00
29815;BME280;16708;50.426;7.664;2023-08-06T18:21:39;982.06;;;12.49;100.00
29815;BME280;16708;50.426;7.664;2023-08-06T18:26:33;982.07;;;12.48;100.00
29815;BME280;16708;50.426;7.664;2023-08-06T18:31:27;982.11;;;12.41;100.00
29815;BME280;16708;50.426;7.664;2023-08-06T18:36:21;982.04;;;12.42;100.00
29815;BME280;16708;50.426;7.664;2023-08-06T18:41:15;982.23;;;12.39;100.00
29815;BME280;16708;50.426;7.664;2023-08-06T18:46:09;982.20;;;12.37;100.00
29815;BME280;16708;50.426;7.664;2023-08-06T18:51:04;982.24;;;12.38;100.00
29815;BME280;16708;50.426;7.664;2023-08-06T18:55:58;982.34;;;12.32;100.00
29815;BME280;16708;50.426;7.664;2023-08-06T19:00:52;982.34;;;12.36;100.00
29815;BME280;16708;50.426;7.664;2023-08-06T19:05:46;982.39;;;12.34;100.00
29815;BME280;16708;50.426;7.664;2023-08-06T19:10:41;982.44;;;12.32;100.00
29815;BME280;16708;50.426;7.664;2023-08-06T19:15:35;982.45;;;12.28;100.00
29815;BME280;16708;50.426;7.664;2023-08-06T19:20:29;982.59;;;12.26;100.00
29815;BME280;16708;50.426;7.664;2023-08-06T19:25:23;982.60;;;12.26;100.00
29815;BME280;16708;50.426;7.664;2023-08-06T19:30:18;982.66;;;12.27;100.00
29815;BME280;16708;50.426;7.664;2023-08-06T19:35:12;982.78;;;12.25;100.00
29815;BME280;16708;50.426;7.664;2023-08-06T19:40:06;982.70;;;12.24;100.00
29815;BME280;16708;50.426;7.664;2023-08-06T19:45:00;982.90;;;12.29;100.00
29815;BME280;16708;50.426;7.664;2023-08-06T19:49:52;983.04;;;12.21;100.00
29815;BME280;16708;50.426;7.664;2023-08-06T19:54:46;982.95;;;12.15;100.00
29815;BME280;16708;50.426;7.664;2023-08-06T19:59:40;983.04;;;12.04;100.00
29815;BME280;16708;50.426;7.664;2023-08-06T20:04:34;983.09;;;11.95;100.00
29815;BME280;16708;50.426;7.664;2023-08-06T20:09:28;983.10;;;11.98;100.00
29815;BME280;16708;50.426;7.664;2023-08-06T20:14:22;983.17;;;11.91;100.00
29815;BME280;16708;50.426;7.664;2023-08-06T20:19:17;983.40;;;11.87;100.00
29815;BME280;16708;50.426;7.664;2023-08-06T20:24:11;983.29;;;11.83;100.00
29815;BME280;16708;50.426;7.664;2023-08-06T20:29:05;983.38;;;11.78;100.00
29815;BME280;16708;50.426;7.664;2023-08-06T20:34:00;983.47;;;11.74;100.00
29815;BME280;16708;50.426;7.664;2023-08-06T20:38:53;983.54;;;11.72;100.00
29815;BME280;16708;50.426;7.664;2023-08-06T20:43:47;983.53;;;11.68;100.00
29815;BME280;16708;50.426;7.664;2023-08-06T20:48:41;983.62;;;11.67;100.00
29815;BME280;16708;50.426;7.664;2023-08-06T20:53:35;983.69;;;11.68;100.00
29815;BME280;16708;50.426;7.664;2023-08-06T20:58:29;983.70;;;11.67;100.00
29815;BME280;16708;50.426;7.664;2023-08-06T21:03:24;983.62;;;11.71;100.00
29815;BME280;16708;50.426;7.664;2023-08-06T21:08:18;983.72;;;11.67;100.00
29815;BME280;16708;50.426;7.664;2023-08-06T21:13:12;983.78;;;11.66;100.00
29815;BME280;16708;50.426;7.664;2023-08-06T21:18:06;983.75;;;11.71;100.00
29815;BME280;16708;50.426;7.664;2023-08-06T21:23:00;983.75;;;11.67;100.00
29815;BME280;16708;50.426;7.664;2023-08-06T21:27:54;983.78;;;11.67;100.00
29815;BME280;16708;50.426;7.664;2023-08-06T21:32:48;983.82;;;11.68;100.00
29815;BME280;16708;50.426;7.664;2023-08-06T21:37:41;983.85;;;11.64;100.00
29815;BME280;16708;50.426;7.664;2023-08-06T21:42:35;983.91;;;11.65;100.00
29815;BME280;16708;50.426;7.664;2023-08-06T21:47:29;983.83;;;11.65;100.00
29815;BME280;16708;50.426;7.664;2023-08-06T21:52:23;983.79;;;11.68;100.00
29815;BME280;16708;50.426;7.664;2023-08-06T21:57:17;983.77;;;11.62;100.00
29815;BME280;16708;50.426;7.664;2023-08-06T22:02:11;983.93;;;11.61;100.00
29815;BME280;16708;50.426;7.664;2023-08-06T22:07:05;983.96;;;11.58;100.00
29815;BME280;16708;50.426;7.664;2023-08-06T22:11:59;983.89;;;11.54;100.00
29815;BME280;16708;50.426;7.664;2023-08-06T22:16:54;983.95;;;11.54;100.00
29815;BME280;16708;50.426;7.664;2023-08-06T22:21:48;983.84;;;11.57;100.00
29815;BME280;16708;50.426;7.664;2023-08-06T22:26:42;983.89;;;11.57;100.00
29815;BME280;16708;50.426;7.664;2023-08-06T22:31:34;983.90;;;11.49;100.00
29815;BME280;16708;50.426;7.664;2023-08-06T22:36:28;983.90;;;11.46;100.00
29815;BME280;16708;50.426;7.664;2023-08-06T22:41:22;983.98;;;11.41;100.00
29815;BME280;16708;50.426;7.664;2023-08-06T22:46:16;984.04;;;11.34;100.00
29815;BME280;16708;50.426;7.664;2023-08-06T22:51:11;984.03;;;11.28;100.00
29815;BME280;16708;50.426;7.664;2023-08-06T22:56:05;984.16;;;11.30;100.00
29815;BME280;16708;50.426;7.664;2023-08-06T23:00:59;984.07;;;11.34;100.00
29815;BME280;16708;50.426;7.664;2023-08-06T23:05:54;984.01;;;11.32;100.00
29815;BME280;16708;50.426;7.664;2023-08-06T23:10:48;984.02;;;11.29;100.00
29815;BME280;16708;50.426;7.664;2023-08-06T23:15:42;984.01;;;11.29;100.00
29815;BME280;16708;50.426;7.664;2023-08-06T23:20:36;984.12;;;11.23;100.00
29815;BME280;16708;50.426;7.664;2023-08-06T23:25:30;984.14;;;11.18;100.00
29815;BME280;16708;50.426;7.664;2023-08-06T23:30:24;984.09;;;11.18;100.00
29815;BME280;16708;50.426;7.664;2023-08-06T23:35:18;984.14;;;11.11;100.00
29815;BME280;16708;50.426;7.664;2023-08-06T23:40:12;984.18;;;11.11;100.00
29815;BME280;16708;50.426;7.664;2023-08-06T23:45:05;984.14;;;11.10;100.00
29815;BME280;16708;50.426;7.664;2023-08-06T23:49:59;984.12;;;11.10;100.00
29815;BME280;16708;50.426;7.664;2023-08-06T23:54:53;984.15;;;11.04;100.00
29815;BME280;16708;50.426;7.664;2023-08-06T23:59:47;984.18;;;11.01;100.00
